Time;durP1;ratioP1;P1;durP2;ratioP2;P2;SDS_P1;SDS_P2;PMS_P1;PMS_P2;Temp;Humidity;BMP_temperature;BMP_pressure;BME280_temperature;BME280_humidity;BME280_pressure;Samples;Min_cycle;Max_cycle;Signal;HPM_P1;HPM_P2
2022/05/28 00:00:52;;;;;;;4.60;2.70;;;20.70;53.80;;;;;;4988208;28;20441;-46
2022/05/28 00:03:19;;;;;;;3.80;3.13;;;20.70;53.60;;;;;;4988555;28;21053;-45
2022/05/28 00:05:44;;;;;;;3.30;3.00;;;20.70;53.40;;;;;;4988504;28;20757;-45
2022/05/28 00:08:10;;;;;;;6.43;3.20;;;20.70;53.30;;;;;;4987514;28;20445;-44
2022/05/28 00:10:36;;;;;;;6.17;3.17;;;20.70;53.20;;;;;;4987414;28;20195;-45
2022/05/28 00:13:02;;;;;;;7.33;3.03;;;20.70;53.20;;;;;;4987156;28;20445;-44
2022/05/28 00:15:28;;;;;;;3.20;2.93;;;20.70;53.10;;;;;;4975998;28;20291;-44
2022/05/28 00:17:54;;;;;;;4.17;3.27;;;20.70;53.30;;;;;;4989986;28;20937;-44
2022/05/28 00:20:19;;;;;;;6.53;3.77;;;20.70;53.40;;;;;;4989185;28;20787;-45
2022/05/28 00:22:45;;;;;;;4.30;3.87;;;20.70;53.60;;;;;;4989095;28;20308;-45
2022/05/28 00:25:13;;;;;;;4.40;3.73;;;20.70;53.50;;;;;;4988437;28;20282;-44
2022/05/28 00:27:40;;;;;;;4.03;3.63;;;20.70;53.60;;;;;;4987710;28;20207;-44
2022/05/28 00:30:08;;;;;;;6.00;3.50;;;20.70;53.70;;;;;;4986540;28;20797;-45
2022/05/28 00:32:34;;;;;;;4.30;3.33;;;20.80;53.90;;;;;;4987592;28;21292;-45
2022/05/28 00:35:00;;;;;;;4.70;3.90;;;20.70;53.60;;;;;;4986870;28;20949;-44
2022/05/28 00:37:26;;;;;;;6.17;3.17;;;20.70;53.60;;;;;;4990003;28;20441;-44
2022/05/28 00:39:51;;;;;;;5.60;3.67;;;20.70;53.60;;;;;;4991735;28;20199;-45
2022/05/28 00:42:17;;;;;;;7.13;3.50;;;20.70;53.60;;;;;;4991723;28;20594;-44
2022/05/28 00:44:43;;;;;;;4.50;3.50;;;20.60;53.50;;;;;;4991070;28;20258;-43
2022/05/28 00:47:09;;;;;;;6.47;3.90;;;20.60;53.80;;;;;;4989270;28;20202;-44
2022/05/28 00:49:34;;;;;;;4.80;4.30;;;20.50;54.00;;;;;;4993053;28;20191;-45
2022/05/28 00:52:03;;;;;;;6.27;3.80;;;20.50;54.10;;;;;;4986543;28;20203;-44
2022/05/28 00:54:43;;;;;;;6.87;3.70;;;20.50;54.00;;;;;;4986523;28;20230;-44
2022/05/28 00:57:10;;;;;;;4.77;3.80;;;20.50;53.80;;;;;;4987773;28;20452;-44
2022/05/28 00:59:36;;;;;;;4.70;3.10;;;20.50;53.60;;;;;;5002161;28;20805;-46
2022/05/28 01:02:14;;;;;;;7.50;3.30;;;20.50;53.60;;;;;;4982892;28;20496;-44
2022/05/28 01:04:55;;;;;;;3.60;3.00;;;20.50;53.40;;;;;;4985189;28;20545;-44
2022/05/28 01:07:37;;;;;;;4.53;3.47;;;20.40;53.10;;;;;;4984238;28;20449;-44
2022/05/28 01:10:22;;;;;;;4.10;2.80;;;20.40;53.20;;;;;;4988531;28;20464;-44
2022/05/28 01:13:05;;;;;;;7.13;3.10;;;20.30;52.90;;;;;;4985062;28;20512;-43
2022/05/28 01:15:48;;;;;;;4.10;2.63;;;20.40;52.90;;;;;;4984260;28;20453;-44
2022/05/28 01:18:18;;;;;;;4.27;3.30;;;20.30;52.80;;;;;;4983423;28;20803;-44
2022/05/28 01:20:51;;;;;;;9.10;3.20;;;20.30;53.00;;;;;;4984555;28;21022;-44
2022/05/28 01:23:53;;;;;;;4.33;3.93;;;20.30;53.20;;;;;;4982290;28;20446;-45
2022/05/28 01:26:30;;;;;;;5.93;3.30;;;20.40;53.30;;;;;;4984845;28;20457;-44
2022/05/28 01:29:00;;;;;;;3.40;3.10;;;20.40;53.20;;;;;;4984333;28;20962;-45
2022/05/28 01:31:27;;;;;;;7.50;3.50;;;20.50;53.20;;;;;;4982781;28;20472;-44
2022/05/28 01:33:55;;;;;;;4.67;3.10;;;20.50;52.90;;;;;;4986263;28;20454;-44
2022/05/28 01:36:22;;;;;;;3.50;3.20;;;20.50;52.50;;;;;;4982568;28;20453;-44
2022/05/28 01:38:49;;;;;;;5.50;3.03;;;20.50;52.60;;;;;;4989223;28;20438;-43
2022/05/28 01:41:16;;;;;;;3.70;3.40;;;20.50;52.90;;;;;;4987162;28;20465;-48
2022/05/28 01:43:45;;;;;;;5.90;3.87;;;20.50;52.90;;;;;;4982943;28;20445;-44
2022/05/28 01:46:14;;;;;;;5.57;3.77;;;20.50;52.80;;;;;;4983139;28;20450;-46
2022/05/28 01:48:42;;;;;;;8.20;2.97;;;20.50;52.60;;;;;;4981281;28;20434;-45
2022/05/28 01:51:11;;;;;;;8.73;3.00;;;20.40;52.00;;;;;;4982319;28;21570;-44
2022/05/28 01:56:23;;;;;;;12.27;2.80;;;20.40;50.10;;;;;;4990083;28;20500;-43
2022/05/28 01:58:49;;;;;;;7.60;3.23;;;20.40;49.50;;;;;;4990009;28;20635;-47
2022/05/28 02:01:15;;;;;;;4.33;2.43;;;20.30;48.80;;;;;;4996178;28;20759;-44
2022/05/28 02:03:44;;;;;;;7.10;2.97;;;20.40;48.40;;;;;;4993506;28;20570;-48
2022/05/28 02:06:09;;;;;;;4.30;2.23;;;20.40;48.30;;;;;;4990888;28;20198;-48
2022/05/28 02:08:39;;;;;;;3.57;2.30;;;20.40;48.00;;;;;;4990312;28;20925;-44
2022/05/28 02:11:12;;;;;;;5.87;2.77;;;20.40;47.70;;;;;;4989978;28;20195;-46
2022/05/28 02:14:04;;;;;;;8.37;3.83;;;20.30;47.50;;;;;;4988728;28;20446;-44
2022/05/28 02:16:57;;;;;;;6.30;3.20;;;20.30;47.10;;;;;;4989803;28;20481;-45
2022/05/28 02:19:59;;;;;;;6.40;2.17;;;20.30;47.40;;;;;;4990699;28;20454;-44
2022/05/28 02:22:57;;;;;;;4.90;2.50;;;20.30;47.50;;;;;;4989172;28;20823;-45
2022/05/28 02:25:39;;;;;;;6.03;2.57;;;20.30;47.40;;;;;;4991210;28;20446;-47
2022/05/28 02:28:07;;;;;;;6.37;2.20;;;20.30;47.10;;;;;;4988685;28;20450;-44
2022/05/28 02:30:33;;;;;;;10.40;2.57;;;20.30;47.10;;;;;;4988640;28;20863;-43
2022/05/28 02:33:04;;;;;;;4.73;2.07;;;20.20;46.80;;;;;;4989663;28;20512;-47
2022/05/28 02:35:30;;;;;;;5.97;2.57;;;20.20;46.60;;;;;;4988583;28;20442;-45
2022/05/28 02:37:56;;;;;;;6.80;2.80;;;20.20;46.80;;;;;;4990646;28;20446;-46
2022/05/28 02:40:22;;;;;;;5.83;2.70;;;20.30;46.50;;;;;;4989866;28;20221;-46
2022/05/28 02:42:48;;;;;;;5.97;2.50;;;20.20;46.10;;;;;;4989778;28;20493;-46
2022/05/28 02:45:14;;;;;;;5.93;2.90;;;20.20;46.00;;;;;;4989404;28;20248;-47
2022/05/28 02:47:40;;;;;;;9.93;3.20;;;20.10;45.90;;;;;;4987682;28;20776;-43
2022/05/28 02:50:06;;;;;;;11.40;2.63;;;20.00;46.10;;;;;;4989724;28;20500;-44
2022/05/28 02:52:31;;;;;;;5.13;2.33;;;20.00;45.70;;;;;;4999267;28;20677;-43
2022/05/28 02:54:57;;;;;;;6.10;2.80;;;19.90;45.70;;;;;;4984298;28;20481;-44
2022/05/28 02:57:22;;;;;;;10.57;3.10;;;19.80;45.70;;;;;;4989637;28;20201;-45
2022/05/28 02:59:48;;;;;;;3.03;2.20;;;19.80;45.70;;;;;;4988330;28;20210;-45
2022/05/28 03:02:14;;;;;;;6.80;2.70;;;19.80;45.80;;;;;;4988982;28;20577;-44
2022/05/28 03:04:39;;;;;;;3.83;2.33;;;19.70;46.30;;;;;;4988939;28;20198;-45
2022/05/28 03:07:06;;;;;;;4.90;2.90;;;19.60;45.90;;;;;;4989681;28;20202;-44
2022/05/28 03:09:32;;;;;;;5.27;2.90;;;19.50;46.00;;;;;;4990062;28;20244;-46
2022/05/28 03:11:58;;;;;;;6.73;2.17;;;19.50;46.20;;;;;;4978574;28;20455;-44
2022/05/28 03:14:25;;;;;;;6.70;2.40;;;19.50;46.30;;;;;;4988991;28;20206;-44
2022/05/28 03:16:51;;;;;;;11.57;3.43;;;19.50;46.30;;;;;;4988368;28;20191;-45
2022/05/28 03:19:17;;;;;;;5.00;2.33;;;19.50;46.30;;;;;;4990355;28;20437;-45
2022/05/28 03:21:43;;;;;;;5.73;3.20;;;19.40;46.00;;;;;;4988603;28;21121;-44
2022/05/28 03:24:08;;;;;;;4.60;2.63;;;19.40;45.80;;;;;;4988514;28;20202;-48
2022/05/28 03:26:34;;;;;;;8.83;2.77;;;19.40;45.80;;;;;;4989681;28;20204;-43
2022/05/28 03:29:00;;;;;;;4.27;2.77;;;19.30;45.60;;;;;;4990278;28;20198;-44
2022/05/28 03:31:27;;;;;;;4.30;2.50;;;19.30;45.60;;;;;;4987563;28;20348;-44
2022/05/28 03:33:53;;;;;;;4.23;2.40;;;19.30;45.40;;;;;;4988551;28;20197;-45
2022/05/28 03:36:20;;;;;;;8.80;2.50;;;19.20;45.90;;;;;;4981976;28;20481;-45
2022/05/28 03:38:46;;;;;;;9.10;2.13;;;19.20;45.00;;;;;;4990593;28;20832;-46
2022/05/28 03:41:12;;;;;;;2.53;1.90;;;19.20;44.80;;;;;;5002403;28;20492;-45
2022/05/28 03:43:38;;;;;;;9.33;2.60;;;19.10;44.80;;;;;;4989193;28;20286;-45
2022/05/28 03:46:04;;;;;;;5.13;2.90;;;19.10;44.50;;;;;;4989658;28;20675;-45
2022/05/28 03:48:32;;;;;;;6.70;2.13;;;19.10;44.50;;;;;;4988540;28;20470;-44
2022/05/28 03:50:58;;;;;;;4.03;2.20;;;19.00;44.20;;;;;;4981849;28;20445;-47
2022/05/28 03:53:24;;;;;;;5.17;1.87;;;19.00;44.10;;;;;;4985265;28;20445;-43
2022/05/28 03:55:49;;;;;;;9.10;3.73;;;19.00;44.30;;;;;;4987449;28;20317;-44
2022/05/28 03:58:15;;;;;;;5.80;2.13;;;19.00;44.50;;;;;;4989919;28;21087;-45
2022/05/28 04:00:41;;;;;;;7.33;2.50;;;19.00;44.40;;;;;;4984113;28;20190;-44
2022/05/28 04:03:07;;;;;;;5.57;2.47;;;19.00;44.40;;;;;;4985102;28;20248;-47
2022/05/28 04:05:36;;;;;;;8.30;2.23;;;18.90;44.20;;;;;;4982391;28;20441;-43
2022/05/28 04:08:02;;;;;;;8.23;3.00;;;18.90;44.20;;;;;;4983136;28;20450;-45
2022/05/28 04:10:27;;;;;;;4.60;2.10;;;18.90;44.30;;;;;;4988793;28;20531;-44
2022/05/28 04:12:53;;;;;;;5.97;2.37;;;18.80;44.20;;;;;;4993017;28;20209;-44
2022/05/28 04:15:19;;;;;;;7.40;3.40;;;18.80;44.20;;;;;;4993658;28;20213;-44
2022/05/28 04:17:44;;;;;;;6.17;2.43;;;18.80;44.40;;;;;;4985359;28;20673;-44
2022/05/28 04:20:11;;;;;;;4.07;1.90;;;18.80;44.40;;;;;;4985487;28;20198;-45
2022/05/28 04:22:37;;;;;;;7.27;2.70;;;18.80;44.60;;;;;;4992950;28;20226;-44
2022/05/28 04:25:03;;;;;;;5.47;2.20;;;18.70;44.60;;;;;;4991712;28;20444;-43
2022/05/28 04:27:29;;;;;;;6.87;2.40;;;18.70;44.60;;;;;;4986006;28;20273;-45
2022/05/28 04:29:55;;;;;;;12.37;2.57;;;18.70;44.60;;;;;;4993295;28;20540;-43
2022/05/28 04:32:20;;;;;;;4.97;2.43;;;18.60;44.60;;;;;;4992887;28;20205;-44
2022/05/28 04:34:46;;;;;;;6.43;2.20;;;18.70;44.60;;;;;;4992568;28;20339;-44
2022/05/28 04:37:11;;;;;;;7.53;2.07;;;18.70;44.60;;;;;;4991584;28;20205;-44
2022/05/28 04:39:37;;;;;;;8.40;3.30;;;18.70;44.70;;;;;;4991794;28;20590;-44
2022/05/28 04:42:03;;;;;;;7.70;1.87;;;18.80;44.50;;;;;;4990739;28;20780;-44
2022/05/28 04:44:29;;;;;;;5.73;2.50;;;18.70;44.50;;;;;;4991557;28;20195;-47
2022/05/28 04:46:54;;;;;;;5.77;2.70;;;18.70;44.60;;;;;;4991175;28;20446;-45
2022/05/28 04:49:20;;;;;;;4.70;1.70;;;18.80;44.70;;;;;;4992824;28;20202;-43
2022/05/28 04:51:45;;;;;;;6.20;2.30;;;18.80;44.40;;;;;;4992564;28;20191;-43
2022/05/28 04:54:11;;;;;;;9.30;2.50;;;18.80;44.50;;;;;;4988036;28;20313;-44
2022/05/28 04:56:36;;;;;;;5.77;2.03;;;18.80;44.50;;;;;;4991105;28;20191;-43
2022/05/28 04:59:02;;;;;;;4.97;2.33;;;18.80;44.50;;;;;;4991430;28;20205;-43
2022/05/28 05:01:28;;;;;;;9.13;2.57;;;18.80;44.60;;;;;;4985706;28;20231;-44
2022/05/28 05:03:53;;;;;;;5.47;2.07;;;18.70;44.90;;;;;;4992146;28;20205;-43
2022/05/28 05:06:20;;;;;;;4.90;2.23;;;18.60;44.90;;;;;;4991287;28;20198;-43
2022/05/28 05:08:45;;;;;;;7.27;2.30;;;18.60;45.00;;;;;;4988675;28;20198;-45
2022/05/28 05:11:12;;;;;;;5.60;1.93;;;18.70;45.00;;;;;;4989776;28;20456;-44
2022/05/28 05:13:39;;;;;;;7.50;2.20;;;18.80;44.90;;;;;;4982996;28;20194;-44
2022/05/28 05:16:09;;;;;;;9.03;2.43;;;18.80;44.50;;;;;;4987596;28;20441;-45
2022/05/28 05:18:35;;;;;;;7.23;2.80;;;18.80;45.00;;;;;;4990825;28;20448;-44
2022/05/28 05:21:00;;;;;;;5.57;2.37;;;18.90;46.90;;;;;;4978772;28;20446;-44
2022/05/28 05:23:26;;;;;;;8.93;3.47;;;19.10;45.80;;;;;;4984448;28;20650;-44
2022/05/28 05:25:51;;;;;;;8.13;2.03;;;19.10;43.90;;;;;;4987698;28;20194;-45
2022/05/28 05:28:17;;;;;;;6.33;1.90;;;19.20;43.50;;;;;;4984807;28;20290;-45
2022/05/28 05:30:42;;;;;;;3.73;2.23;;;19.20;43.50;;;;;;4984191;28;20207;-44
2022/05/28 05:33:08;;;;;;;5.87;2.00;;;19.20;43.00;;;;;;4985419;28;20199;-44
2022/05/28 05:35:34;;;;;;;4.10;1.60;;;19.20;43.50;;;;;;4982807;28;21012;-44
2022/05/28 05:38:05;;;;;;;5.93;2.13;;;19.20;42.70;;;;;;4986302;28;20190;-44
2022/05/28 05:40:35;;;;;;;5.57;2.10;;;19.20;42.60;;;;;;4980496;28;20198;-44
2022/05/28 05:43:00;;;;;;;4.40;1.80;;;19.10;42.80;;;;;;4981137;28;20823;-45
2022/05/28 05:45:26;;;;;;;8.80;2.07;;;19.20;43.40;;;;;;4983076;28;20430;-45
2022/05/28 05:47:51;;;;;;;4.73;2.00;;;19.20;43.00;;;;;;4985173;28;20190;-44
2022/05/28 05:50:17;;;;;;;4.33;1.83;;;19.30;42.90;;;;;;4983031;28;20293;-46
2022/05/28 05:52:43;;;;;;;7.07;2.50;;;19.50;42.90;;;;;;4979538;28;20230;-46
2022/05/28 05:55:09;;;;;;;4.03;2.20;;;19.60;42.60;;;;;;4982094;28;20238;-45
2022/05/28 05:57:34;;;;;;;6.90;1.90;;;19.60;41.60;;;;;;4983343;28;20191;-45
2022/05/28 06:00:00;;;;;;;6.50;1.87;;;19.50;42.30;;;;;;4986558;28;20442;-45
2022/05/28 06:02:25;;;;;;;8.30;2.27;;;19.50;41.60;;;;;;4983468;28;20742;-43
2022/05/28 06:04:51;;;;;;;5.93;2.03;;;19.50;42.20;;;;;;4984637;28;20281;-45
2022/05/28 06:07:17;;;;;;;7.30;2.03;;;19.50;41.80;;;;;;4988841;28;20674;-44
2022/05/28 06:09:42;;;;;;;3.13;1.83;;;19.50;41.60;;;;;;4981038;28;20194;-45
2022/05/28 06:12:08;;;;;;;8.90;2.30;;;19.60;41.80;;;;;;4986811;28;20198;-44
2022/05/28 06:14:34;;;;;;;4.73;1.93;;;19.80;42.10;;;;;;4981840;28;20700;-43
2022/05/28 06:16:59;;;;;;;8.10;2.33;;;19.80;41.90;;;;;;4980731;28;21073;-45
2022/05/28 06:19:25;;;;;;;3.50;1.80;;;19.80;41.70;;;;;;4983842;28;20409;-44
2022/05/28 06:21:50;;;;;;;5.90;2.03;;;19.80;41.50;;;;;;4983163;28;20309;-46
2022/05/28 06:24:16;;;;;;;5.93;2.30;;;19.80;41.50;;;;;;4975933;28;20210;-43
2022/05/28 06:26:41;;;;;;;4.20;2.00;;;19.80;42.00;;;;;;4982938;28;20199;-46
2022/05/28 06:29:07;;;;;;;7.10;1.93;;;19.80;41.70;;;;;;4984760;28;20565;-44
2022/05/28 06:31:36;;;;;;;8.37;2.53;;;19.70;40.80;;;;;;4986900;28;20249;-45
2022/05/28 06:34:02;;;;;;;2.07;1.47;;;19.70;40.90;;;;;;4987816;28;20261;-43
2022/05/28 06:36:27;;;;;;;9.53;2.20;;;19.50;41.40;;;;;;4987698;28;20951;-45
2022/05/28 06:38:53;;;;;;;4.70;1.87;;;19.50;42.00;;;;;;4987255;28;20202;-45
2022/05/28 06:41:18;;;;;;;4.73;1.63;;;19.70;41.40;;;;;;4986810;28;20260;-46
2022/05/28 06:43:44;;;;;;;4.87;1.67;;;19.90;41.10;;;;;;4988935;28;20232;-45
2022/05/28 06:46:10;;;;;;;4.23;1.43;;;20.10;40.30;;;;;;4988724;28;20207;-44
2022/05/28 06:48:36;;;;;;;5.30;1.77;;;20.20;40.00;;;;;;4981238;28;20202;-44
2022/05/28 06:51:02;;;;;;;4.03;2.00;;;20.30;39.70;;;;;;4989543;28;20198;-44
2022/05/28 06:53:48;;;;;;;4.80;2.47;;;20.50;40.10;;;;;;4986539;28;20245;-44
2022/05/28 06:56:16;;;;;;;7.93;1.77;;;20.60;40.80;;;;;;4986688;28;20556;-44
2022/05/28 06:58:45;;;;;;;6.23;2.20;;;20.60;39.60;;;;;;4984651;28;20849;-45
2022/05/28 07:01:13;;;;;;;9.23;1.80;;;20.60;39.00;;;;;;4987738;28;20824;-48
2022/05/28 07:03:40;;;;;;;3.00;1.50;;;20.70;39.30;;;;;;4988795;28;20500;-45
2022/05/28 07:06:06;;;;;;;4.17;1.60;;;20.80;39.20;;;;;;4988119;28;20477;-44
2022/05/28 07:08:31;;;;;;;8.23;2.40;;;20.90;39.00;;;;;;4990104;28;20469;-45
2022/05/28 07:10:59;;;;;;;3.00;1.47;;;20.90;38.30;;;;;;4989926;28;21034;-45
2022/05/28 07:13:26;;;;;;;3.20;1.30;;;21.00;37.50;;;;;;4989522;28;20273;-45
2022/05/28 07:15:52;;;;;;;4.30;1.73;;;20.90;37.90;;;;;;4990068;28;20943;-45
2022/05/28 07:18:18;;;;;;;3.70;1.60;;;20.90;37.80;;;;;;4978383;28;20489;-45
2022/05/28 07:20:44;;;;;;;3.83;2.00;;;20.90;38.00;;;;;;4988922;28;20198;-44
2022/05/28 07:23:21;;;;;;;4.80;1.97;;;21.00;38.20;;;;;;4988076;28;20497;-44
2022/05/28 07:25:47;;;;;;;7.03;2.03;;;21.00;38.90;;;;;;4988477;28;20449;-44
2022/05/28 07:28:27;;;;;;;3.57;1.50;;;21.10;38.60;;;;;;4988399;28;20449;-45
2022/05/28 07:31:15;;;;;;;5.77;1.90;;;21.30;37.30;;;;;;4989595;28;20261;-45
2022/05/28 07:33:43;;;;;;;3.20;1.60;;;21.40;38.20;;;;;;4986568;28;20444;-42
2022/05/28 07:36:11;;;;;;;7.07;1.67;;;21.50;37.50;;;;;;4989586;28;20454;-46
2022/05/28 07:38:38;;;;;;;5.00;1.77;;;21.40;35.70;;;;;;4989170;28;20980;-45
2022/05/28 07:41:18;;;;;;;6.90;1.60;;;21.50;35.50;;;;;;4989368;28;20918;-44
2022/05/28 07:43:44;;;;;;;4.80;1.57;;;21.70;35.80;;;;;;4989976;28;20461;-45
2022/05/28 07:46:12;;;;;;;3.10;1.40;;;21.50;36.30;;;;;;4989321;28;20445;-44
2022/05/28 07:48:38;;;;;;;5.33;1.80;;;21.70;37.80;;;;;;4988676;28;20573;-45
2022/05/28 07:51:03;;;;;;;3.90;2.00;;;21.90;37.70;;;;;;4987934;28;21162;-45
2022/05/28 07:53:29;;;;;;;5.00;1.70;;;22.10;37.20;;;;;;4984948;28;20210;-45
2022/05/28 07:55:54;;;;;;;3.23;1.60;;;22.20;35.90;;;;;;4982813;28;20202;-46
2022/05/28 07:58:20;;;;;;;7.30;2.07;;;22.40;36.40;;;;;;4989968;28;20198;-45
2022/05/28 08:00:49;;;;;;;2.60;1.60;;;22.50;36.30;;;;;;4986247;28;21807;-44
2022/05/28 08:03:16;;;;;;;4.47;1.30;;;22.70;35.50;;;;;;4987888;28;20579;-45
2022/05/28 08:05:44;;;;;;;1.27;1.17;;;22.90;34.10;;;;;;4986112;28;21272;-43
2022/05/28 08:08:10;;;;;;;3.17;1.50;;;23.10;34.70;;;;;;4990203;28;20537;-43
2022/05/28 08:10:36;;;;;;;4.80;1.50;;;23.30;33.80;;;;;;4987891;28;20834;-43
2022/05/28 08:13:13;;;;;;;3.53;1.57;;;23.00;32.70;;;;;;4989130;28;20448;-43
2022/05/28 08:15:40;;;;;;;8.53;2.13;;;23.00;32.80;;;;;;4988840;28;20320;-45
2022/05/28 08:18:07;;;;;;;3.80;1.40;;;22.80;33.00;;;;;;4983139;28;20427;-44
2022/05/28 08:23:18;;;;;;;7.10;2.00;;;22.90;35.00;;;;;;4988720;28;21010;-45
2022/05/28 08:25:45;;;;;;;5.70;2.00;;;23.00;34.50;;;;;;4989523;28;20529;-45
2022/05/28 08:28:12;;;;;;;3.20;1.53;;;23.10;33.10;;;;;;4988558;28;20449;-45
2022/05/28 08:30:38;;;;;;;5.40;1.73;;;23.20;33.50;;;;;;4987998;28;20539;-46
2022/05/28 08:33:08;;;;;;;4.53;1.80;;;23.30;34.90;;;;;;4988888;28;20839;-44
2022/05/28 08:35:35;;;;;;;6.37;1.73;;;23.20;35.10;;;;;;4988458;28;21001;-45
2022/05/28 08:38:05;;;;;;;2.93;1.47;;;23.30;34.80;;;;;;4989706;28;20793;-44
2022/05/28 08:40:36;;;;;;;4.67;1.87;;;23.30;34.20;;;;;;4988061;28;20441;-45
2022/05/28 08:43:02;;;;;;;4.80;1.73;;;23.30;34.50;;;;;;4983901;28;20496;-44
2022/05/28 08:45:31;;;;;;;3.90;1.60;;;23.20;34.40;;;;;;4988444;28;20931;-45
2022/05/28 08:47:56;;;;;;;3.30;1.60;;;23.20;34.70;;;;;;4989005;28;20528;-44
2022/05/28 08:50:22;;;;;;;5.20;1.83;;;23.20;33.80;;;;;;4989362;28;20487;-45
2022/05/28 08:53:11;;;;;;;4.73;1.60;;;23.40;35.30;;;;;;4989141;28;20209;-45
2022/05/28 08:55:42;;;;;;;2.83;1.90;;;23.60;35.60;;;;;;4982839;28;20226;-45
2022/05/28 08:58:13;;;;;;;4.30;1.30;;;23.60;34.10;;;;;;4992088;28;20453;-45
2022/05/28 09:00:46;;;;;;;3.83;1.97;;;23.80;33.00;;;;;;4987192;28;20575;-46
2022/05/28 09:03:32;;;;;;;2.80;1.20;;;24.00;33.50;;;;;;4986839;28;20485;-46
2022/05/28 09:06:05;;;;;;;3.77;1.93;;;24.10;33.70;;;;;;4989519;28;20465;-45
2022/05/28 09:08:42;;;;;;;4.03;1.73;;;24.40;33.60;;;;;;4987626;28;20472;-45
2022/05/28 09:11:17;;;;;;;4.83;1.90;;;24.60;34.50;;;;;;4977896;28;20450;-44
2022/05/28 09:13:49;;;;;;;3.43;1.60;;;24.80;33.10;;;;;;4992433;28;20477;-45
2022/05/28 09:16:28;;;;;;;2.33;1.53;;;24.80;34.10;;;;;;4988832;28;21024;-46
2022/05/28 09:19:00;;;;;;;2.33;1.80;;;24.60;34.00;;;;;;4990832;28;20968;-46
2022/05/28 09:21:26;;;;;;;5.17;1.63;;;24.90;33.60;;;;;;4987678;28;20449;-48
2022/05/28 09:24:20;;;;;;;5.07;1.80;;;25.00;32.60;;;;;;4987872;28;20462;-44
2022/05/28 09:27:04;;;;;;;3.60;1.73;;;25.00;31.40;;;;;;4982388;28;20207;-46
2022/05/28 09:29:32;;;;;;;4.97;1.40;;;24.90;31.00;;;;;;4990259;28;20842;-46
2022/05/28 09:32:07;;;;;;;8.57;1.80;;;24.70;32.10;;;;;;4989306;28;22592;-43
2022/05/28 09:35:09;;;;;;;5.00;1.70;;;24.60;31.90;;;;;;4989677;28;20483;-46
2022/05/28 09:37:44;;;;;;;3.60;1.50;;;24.60;31.70;;;;;;4987850;28;20457;-44
2022/05/28 09:40:21;;;;;;;2.67;1.43;;;24.70;31.90;;;;;;4989185;28;20598;-46
2022/05/28 09:42:55;;;;;;;8.33;1.70;;;24.90;31.70;;;;;;4988269;28;21165;-45
2022/05/28 09:45:48;;;;;;;4.93;1.57;;;24.90;32.30;;;;;;4988163;28;21006;-46
2022/05/28 09:48:23;;;;;;;5.43;1.50;;;24.70;31.70;;;;;;4986987;28;20446;-45
2022/05/28 09:50:49;;;;;;;3.33;1.63;;;24.50;31.40;;;;;;5002447;28;20791;-46
2022/05/28 09:56:42;;;;;;;2.93;1.53;;;24.70;33.60;;;;;;4987726;28;20221;-45
2022/05/28 09:59:43;;;;;;;3.57;2.00;;;24.80;31.90;;;;;;4948914;28;20873;-44
2022/05/28 10:02:38;;;;;;;4.23;1.30;;;25.00;31.70;;;;;;4979237;28;20500;-44
2022/05/28 10:05:09;;;;;;;4.20;1.80;;;24.80;31.90;;;;;;4982355;28;20453;-47
2022/05/28 10:07:45;;;;;;;3.77;1.47;;;24.90;32.30;;;;;;4989170;28;20449;-44
2022/05/28 10:10:26;;;;;;;3.57;1.70;;;25.10;31.90;;;;;;4987335;28;20454;-46
2022/05/28 10:13:04;;;;;;;3.17;1.63;;;25.30;30.10;;;;;;4990207;28;20453;-45
2022/05/28 10:15:37;;;;;;;2.23;1.43;;;25.50;30.60;;;;;;4989138;28;20541;-45
2022/05/28 10:18:07;;;;;;;4.50;1.80;;;25.60;30.60;;;;;;4989699;28;20949;-46
2022/05/28 10:20:33;;;;;;;4.77;1.60;;;25.60;31.10;;;;;;4985817;28;20655;-43
2022/05/28 10:23:02;;;;;;;6.80;1.60;;;25.50;31.20;;;;;;4991414;28;20568;-48
2022/05/28 10:25:41;;;;;;;6.33;1.90;;;25.40;31.30;;;;;;4987545;28;20194;-47
2022/05/28 10:28:09;;;;;;;5.07;1.60;;;25.20;32.00;;;;;;4989980;28;20449;-44
2022/05/28 10:30:37;;;;;;;6.93;2.27;;;25.20;31.70;;;;;;4987737;28;20508;-48
2022/05/28 10:33:14;;;;;;;4.07;1.60;;;25.20;31.90;;;;;;4986597;28;21047;-44
2022/05/28 10:35:40;;;;;;;4.17;1.90;;;25.20;31.60;;;;;;4988209;28;20535;-43
2022/05/28 10:38:23;;;;;;;5.17;2.07;;;25.00;31.20;;;;;;4983081;28;20449;-44
2022/05/28 10:41:01;;;;;;;4.80;1.80;;;24.80;31.10;;;;;;4989009;28;20452;-43
2022/05/28 10:43:38;;;;;;;5.67;2.83;;;24.70;32.40;;;;;;4985643;28;20481;-43
2022/05/28 10:46:14;;;;;;;3.13;1.90;;;24.70;34.50;;;;;;4986585;28;20485;-43
2022/05/28 10:49:01;;;;;;;4.80;2.57;;;24.80;34.10;;;;;;4985359;28;20453;-43
2022/05/28 10:51:48;;;;;;;5.17;2.33;;;25.00;35.00;;;;;;4988543;28;21128;-47
2022/05/28 10:54:29;;;;;;;4.07;1.50;;;25.20;31.90;;;;;;4985468;28;20555;-43
2022/05/28 10:57:24;;;;;;;2.13;1.40;;;25.40;31.80;;;;;;4988428;28;20965;-43
2022/05/28 11:00:22;;;;;;;4.90;1.50;;;25.20;32.50;;;;;;4950735;28;21001;-43
2022/05/28 11:02:59;;;;;;;7.13;1.80;;;25.20;33.20;;;;;;4965267;28;20503;-47
2022/05/28 11:05:52;;;;;;;6.17;1.50;;;25.40;34.00;;;;;;4987181;28;20477;-45
2022/05/28 11:08:41;;;;;;;3.30;1.60;;;25.60;33.40;;;;;;4987541;28;20949;-44
2022/05/28 11:11:22;;;;;;;4.47;1.77;;;25.90;31.40;;;;;;4986616;28;21068;-47
2022/05/28 11:13:53;;;;;;;2.57;1.50;;;26.10;32.50;;;;;;4989184;28;22073;-43
2022/05/28 11:16:38;;;;;;;2.80;1.50;;;26.10;29.90;;;;;;4977861;28;20477;-45
2022/05/28 11:19:19;;;;;;;5.00;1.70;;;26.30;29.90;;;;;;4987276;28;20556;-44
2022/05/28 11:21:57;;;;;;;4.03;1.50;;;26.50;30.40;;;;;;4986771;28;20555;-45
2022/05/28 11:24:51;;;;;;;6.57;1.80;;;26.60;29.40;;;;;;4987208;28;20508;-43
2022/05/28 11:27:39;;;;;;;4.93;1.70;;;26.60;29.20;;;;;;4987334;28;20484;-45
2022/05/28 11:30:31;;;;;;;6.10;2.03;;;26.50;28.40;;;;;;4987142;28;20955;-44
2022/05/28 11:33:05;;;;;;;3.47;1.80;;;25.90;28.50;;;;;;4989454;28;20489;-43
2022/05/28 11:35:55;;;;;;;2.40;1.30;;;25.80;29.40;;;;;;4983519;28;20450;-44
2022/05/28 11:38:24;;;;;;;4.40;1.80;;;25.90;29.10;;;;;;4984469;28;20882;-48
2022/05/28 11:41:01;;;;;;;2.77;1.80;;;26.10;29.10;;;;;;4989020;28;20446;-47
2022/05/28 11:43:31;;;;;;;3.40;1.40;;;26.40;29.90;;;;;;4981510;28;20477;-44
2022/05/28 11:46:14;;;;;;;4.20;1.50;;;26.40;28.80;;;;;;4986254;28;20515;-46
2022/05/28 11:51:46;;;;;;;1.97;1.30;;;26.40;27.50;;;;;;4978211;28;20488;-46
2022/05/28 11:54:21;;;;;;;3.70;1.80;;;26.50;27.80;;;;;;4983973;28;20994;-46
2022/05/28 11:56:49;;;;;;;3.90;1.73;;;26.50;29.00;;;;;;4981636;28;20886;-46
2022/05/28 11:59:23;;;;;;;5.93;1.73;;;26.30;27.60;;;;;;4983201;28;20450;-44
2022/05/28 12:01:53;;;;;;;3.30;1.50;;;26.20;27.60;;;;;;4986757;28;20949;-44
2022/05/28 12:04:19;;;;;;;2.27;1.30;;;26.40;29.00;;;;;;4985431;28;20441;-44
2022/05/28 12:06:56;;;;;;;2.97;1.40;;;26.50;27.80;;;;;;4986773;28;20536;-44
2022/05/28 12:09:26;;;;;;;2.10;1.50;;;26.50;27.70;;;;;;4985142;28;20442;-44
2022/05/28 12:12:20;;;;;;;2.40;1.30;;;26.50;27.50;;;;;;4988107;28;20936;-44
2022/05/28 12:15:00;;;;;;;2.90;1.50;;;26.50;28.10;;;;;;4989232;28;20458;-47
2022/05/28 12:17:29;;;;;;;2.27;1.47;;;26.60;27.90;;;;;;4985272;28;20797;-43
2022/05/28 12:20:07;;;;;;;5.40;1.97;;;26.50;28.40;;;;;;4985247;28;20537;-44
2022/05/28 12:22:36;;;;;;;3.60;1.30;;;26.50;28.40;;;;;;4986666;28;20589;-44
2022/05/28 12:25:15;;;;;;;4.50;1.63;;;26.50;28.10;;;;;;4986177;28;20445;-46
2022/05/28 12:27:50;;;;;;;3.63;1.50;;;26.40;28.80;;;;;;4987748;28;20968;-44
2022/05/28 12:30:44;;;;;;;3.97;1.97;;;26.40;28.60;;;;;;4987504;28;21004;-46
2022/05/28 12:33:22;;;;;;;2.97;1.70;;;26.50;28.60;;;;;;4991223;28;20450;-45
2022/05/28 12:35:57;;;;;;;4.87;1.97;;;26.50;29.40;;;;;;4992526;28;20449;-43
2022/05/28 12:38:57;;;;;;;2.97;1.83;;;26.40;28.80;;;;;;4986099;28;20448;-45
2022/05/28 12:41:27;;;;;;;3.60;1.70;;;26.30;28.40;;;;;;4987445;28;20525;-46
2022/05/28 12:44:02;;;;;;;5.33;1.70;;;26.30;28.70;;;;;;4991352;28;20453;-46
2022/05/28 12:46:48;;;;;;;3.27;1.53;;;26.20;28.80;;;;;;4990547;28;20445;-43
2022/05/28 12:49:46;;;;;;;4.53;1.50;;;26.40;28.20;;;;;;4982283;28;20450;-42
2022/05/28 12:52:40;;;;;;;2.13;1.30;;;26.20;28.00;;;;;;4990275;28;20453;-44
2022/05/28 12:55:35;;;;;;;4.43;2.13;;;26.10;28.80;;;;;;4979945;28;20492;-44
2022/05/28 12:58:11;;;;;;;2.70;1.77;;;26.30;31.30;;;;;;4991220;28;20453;-45
2022/05/28 13:00:54;;;;;;;2.23;1.30;;;26.50;30.60;;;;;;4986360;28;20817;-43
2022/05/28 13:03:40;;;;;;;2.97;1.40;;;26.70;27.70;;;;;;4980445;28;20490;-43
2022/05/28 13:06:09;;;;;;;4.43;1.73;;;26.80;27.70;;;;;;4988011;28;20449;-44
2022/05/28 13:08:44;;;;;;;2.57;1.73;;;26.60;27.90;;;;;;4988865;28;20445;-43
2022/05/28 13:11:37;;;;;;;3.87;1.50;;;26.80;28.50;;;;;;4991417;28;20519;-43
2022/05/28 13:14:20;;;;;;;2.73;1.50;;;27.00;29.00;;;;;;4990147;28;20515;-42
2022/05/28 13:16:52;;;;;;;4.20;1.60;;;26.80;27.50;;;;;;4987906;28;20458;-42
2022/05/28 13:19:46;;;;;;;2.97;1.70;;;26.90;27.50;;;;;;4986098;28;20455;-43